createdAt,value
2022-11-27T00:01:17.503Z,61.35
2022-11-27T00:03:44.415Z,60.95
2022-11-27T00:06:17.986Z,55.95
2022-11-27T00:08:45.924Z,59.17
2022-11-27T00:11:24.354Z,52.08
2022-11-27T00:13:51.950Z,53.30
2022-11-27T00:16:20.057Z,48.70
2022-11-27T00:18:47.339Z,52.55
2022-11-27T00:21:26.519Z,55.05
2022-11-27T00:23:55.133Z,54.40
2022-11-27T00:26:22.938Z,56.38
2022-11-27T00:28:50.680Z,59.78
2022-11-27T00:31:28.707Z,53.78
2022-11-27T00:33:56.697Z,60.60
2022-11-27T00:36:23.802Z,56.70
2022-11-27T00:38:51.476Z,55.35
2022-11-27T00:41:27.238Z,67.32
2022-11-27T00:43:55.306Z,63.50
2022-11-27T00:46:28.432Z,50.15
2022-11-27T00:49:00.529Z,60.30
2022-11-27T00:51:28.660Z,62.40
2022-11-27T00:53:56.238Z,56.42
2022-11-27T00:56:25.998Z,65.28
2022-11-27T00:58:53.826Z,62.22
2022-11-27T01:01:35.606Z,61.40
2022-11-27T01:04:04.907Z,68.82
2022-11-27T01:06:32.517Z,58.72
2022-11-27T01:09:00.011Z,59.08
2022-11-27T01:11:32.345Z,59.47
2022-11-27T01:14:02.395Z,63.10
2022-11-27T01:16:31.358Z,58.65
2022-11-27T01:18:59.813Z,64.35
2022-11-27T01:21:29.324Z,63.45
2022-11-27T01:23:56.365Z,62.28
2022-11-27T01:26:23.255Z,59.97
2022-11-27T01:28:54.563Z,50.20
2022-11-27T01:31:24.804Z,57.20
2022-11-27T01:33:57.219Z,50.90
2022-11-27T01:36:24.693Z,53.53
2022-11-27T01:38:51.871Z,49.90
2022-11-27T01:41:22.195Z,58.47
2022-11-27T01:44:01.170Z,57.35
2022-11-27T01:46:39.610Z,50.70
2022-11-27T01:49:09.281Z,48.13
2022-11-27T01:51:41.208Z,51.42
2022-11-27T01:54:10.594Z,44.30
2022-11-27T01:56:40.165Z,48.97
2022-11-27T01:59:08.041Z,55.88
2022-11-27T02:01:34.905Z,59.90
2022-11-27T02:04:02.262Z,58.92
2022-11-27T02:06:29.544Z,55.67
2022-11-27T02:08:56.806Z,52.88
2022-11-27T02:11:46.661Z,56.33
2022-11-27T02:14:41.352Z,52.80
2022-11-27T02:17:23.056Z,51.97
2022-11-27T02:20:12.035Z,55.25
2022-11-27T02:22:57.439Z,50.85
2022-11-27T02:25:28.592Z,55.75
2022-11-27T02:28:07.897Z,58.33
2022-11-27T02:30:40.465Z,51.22
2022-11-27T02:33:11.843Z,48.38
2022-11-27T02:35:48.152Z,51.70
2022-11-27T02:38:25.543Z,53.42
2022-11-27T02:40:59.022Z,55.40
2022-11-27T02:43:48.243Z,54.85
2022-11-27T02:46:18.256Z,55.78
2022-11-27T02:48:47.589Z,53.17
2022-11-27T02:51:17.826Z,54.13
2022-11-27T02:53:51.527Z,55.20
2022-11-27T02:56:23.996Z,53.13
2022-11-27T02:58:52.706Z,51.10
2022-11-27T03:01:22.098Z,49.53
2022-11-27T03:03:53.555Z,48.08
2022-11-27T03:06:42.091Z,45.80
2022-11-27T03:09:32.061Z,47.50
2022-11-27T03:11:59.453Z,48.10
2022-11-27T03:14:26.522Z,46.85
2022-11-27T03:17:21.466Z,49.33
2022-11-27T03:20:20.568Z,43.42
2022-11-27T03:22:47.643Z,46.40
2022-11-27T03:25:16.299Z,41.47
2022-11-27T03:27:55.796Z,38.55
2022-11-27T03:30:23.026Z,34.45
2022-11-27T03:32:49.975Z,31.33
2022-11-27T03:35:21.878Z,27.30
2022-11-27T03:37:49.745Z,27.77
2022-11-27T03:40:17.912Z,26.70
2022-11-27T03:42:48.179Z,26.70
2022-11-27T03:45:41.463Z,32.00
2022-11-27T03:48:22.316Z,34.13
2022-11-27T03:51:02.455Z,31.75
2022-11-27T03:53:47.253Z,34.45
2022-11-27T03:56:33.894Z,29.20
2022-11-27T03:59:07.413Z,28.00
2022-11-27T04:01:34.438Z,31.70
2022-11-27T04:04:01.361Z,29.13
2022-11-27T04:06:28.334Z,31.40
2022-11-27T04:08:55.154Z,29.77
2022-11-27T04:11:21.931Z,31.55
2022-11-27T04:13:48.878Z,31.95
2022-11-27T04:16:15.850Z,36.20
2022-11-27T04:18:42.624Z,38.05
2022-11-27T04:21:09.485Z,30.38
2022-11-27T04:23:37.782Z,35.58
2022-11-27T04:26:05.733Z,33.55
2022-11-27T04:28:32.935Z,34.97
2022-11-27T04:30:59.755Z,37.17
2022-11-27T04:33:26.875Z,34.70
2022-11-27T04:35:53.932Z,40.20
2022-11-27T04:38:21.846Z,35.92
2022-11-27T04:40:51.245Z,38.47
2022-11-27T04:43:18.030Z,38.40
2022-11-27T04:45:44.917Z,31.88
2022-11-27T04:48:11.861Z,32.85
2022-11-27T04:50:39.358Z,36.85
2022-11-27T04:53:06.179Z,36.55
2022-11-27T04:55:33.223Z,33.67
2022-11-27T04:58:00.325Z,36.08
2022-11-27T05:00:27.614Z,38.45
2022-11-27T05:02:54.948Z,34.92
2022-11-27T05:05:21.784Z,37.67
2022-11-27T05:07:48.637Z,38.20
2022-11-27T05:10:15.513Z,37.60
2022-11-27T05:12:42.703Z,35.88
2022-11-27T05:15:10.060Z,37.38
2022-11-27T05:17:37.340Z,34.67
2022-11-27T05:20:05.079Z,35.38
2022-11-27T05:22:32.234Z,32.65
2022-11-27T05:24:58.975Z,37.85
2022-11-27T05:27:25.764Z,37.70
2022-11-27T05:29:52.528Z,41.78
2022-11-27T05:32:19.745Z,38.80
2022-11-27T05:34:48.635Z,38.40
2022-11-27T05:37:19.429Z,39.13
2022-11-27T05:39:46.853Z,36.35
2022-11-27T05:42:13.723Z,37.38
2022-11-27T05:44:41.071Z,36.63
2022-11-27T05:47:08.115Z,35.72
2022-11-27T05:49:35.280Z,35.97
2022-11-27T05:52:02.455Z,40.90
2022-11-27T05:54:29.647Z,37.65
2022-11-27T05:56:56.827Z,37.08
2022-11-27T05:59:23.606Z,34.97
2022-11-27T06:01:50.604Z,35.47
2022-11-27T06:04:18.069Z,34.45
2022-11-27T06:06:45.323Z,41.15
2022-11-27T06:09:13.418Z,36.70
2022-11-27T06:11:42.504Z,37.42
2022-11-27T06:14:10.770Z,39.10
2022-11-27T06:16:38.338Z,36.00
2022-11-27T06:19:05.261Z,45.08
2022-11-27T06:21:32.070Z,45.97
2022-11-27T06:23:59.468Z,42.80
2022-11-27T06:26:28.503Z,38.45
2022-11-27T06:28:56.653Z,39.00
2022-11-27T06:31:27.633Z,40.17
2022-11-27T06:33:55.947Z,39.40
2022-11-27T06:36:26.744Z,40.28
2022-11-27T06:38:54.144Z,41.08
2022-11-27T06:41:24.760Z,38.80
2022-11-27T06:43:51.864Z,39.42
2022-11-27T06:46:21.273Z,39.65
2022-11-27T06:48:49.695Z,46.47
2022-11-27T06:51:19.970Z,53.35
2022-11-27T06:53:47.158Z,47.92
2022-11-27T06:56:17.010Z,57.13
2022-11-27T06:58:44.586Z,51.67
2022-11-27T07:01:16.890Z,46.42
2022-11-27T07:03:44.242Z,47.17
2022-11-27T07:06:17.714Z,47.45
2022-11-27T07:08:44.545Z,47.05
2022-11-27T07:11:18.358Z,48.60
2022-11-27T07:13:49.607Z,51.28
2022-11-27T07:16:18.409Z,52.63
2022-11-27T07:18:53.206Z,47.78
2022-11-27T07:21:20.348Z,43.78
2022-11-27T07:23:47.805Z,47.03
2022-11-27T07:26:21.105Z,42.67
2022-11-27T07:28:48.425Z,42.05
2022-11-27T07:31:28.832Z,42.50
2022-11-27T07:33:56.724Z,34.78
2022-11-27T07:36:26.649Z,40.60
2022-11-27T07:38:53.621Z,45.40
2022-11-27T07:41:20.944Z,38.13
2022-11-27T07:43:48.368Z,39.15
2022-11-27T07:46:22.285Z,38.85
2022-11-27T07:48:50.027Z,34.13
2022-11-27T07:51:19.032Z,38.67
2022-11-27T07:53:46.409Z,40.30
2022-11-27T07:56:15.335Z,36.05
2022-11-27T07:58:42.196Z,35.40
2022-11-27T08:01:11.738Z,33.20
2022-11-27T08:03:38.736Z,31.60
2022-11-27T08:06:13.332Z,27.38
2022-11-27T08:08:40.560Z,36.22
2022-11-27T08:11:21.951Z,32.15
2022-11-27T08:13:49.618Z,29.30
2022-11-27T08:16:17.015Z,31.33
2022-11-27T08:18:44.363Z,37.08
2022-11-27T08:21:11.336Z,32.30
2022-11-27T08:23:38.137Z,32.17
2022-11-27T08:26:07.382Z,32.42
2022-11-27T08:28:34.831Z,33.60
2022-11-27T08:31:03.299Z,32.97
2022-11-27T08:33:30.599Z,30.70
2022-11-27T08:35:57.644Z,31.83
2022-11-27T08:38:24.607Z,34.58
2022-11-27T08:41:00.298Z,31.48
2022-11-27T08:43:28.046Z,35.25
2022-11-27T08:45:55.668Z,34.83
2022-11-27T08:48:23.555Z,33.22
2022-11-27T08:50:52.630Z,33.92
2022-11-27T08:53:19.891Z,32.85
2022-11-27T08:55:47.759Z,33.83
2022-11-27T08:58:15.245Z,30.25
2022-11-27T09:00:42.074Z,29.65
2022-11-27T09:03:11.524Z,32.45
2022-11-27T09:05:43.022Z,27.48
2022-11-27T09:08:09.974Z,29.33
2022-11-27T09:10:37.546Z,36.22
2022-11-27T09:13:04.801Z,52.08
2022-11-27T09:15:31.611Z,37.92
2022-11-27T09:17:58.981Z,32.55
2022-11-27T09:20:25.904Z,29.52
2022-11-27T09:22:52.655Z,30.10
2022-11-27T09:25:19.929Z,31.83
2022-11-27T09:27:47.205Z,32.63
2022-11-27T09:30:17.929Z,30.00
2022-11-27T09:32:45.436Z,35.95
2022-11-27T09:35:13.171Z,33.90
2022-11-27T09:40:18.242Z,36.97
2022-11-27T10:01:53.658Z,30.15
2022-11-27T10:04:21.803Z,29.23
2022-11-27T10:09:41.858Z,30.55
2022-11-27T10:12:33.733Z,29.95
2022-11-27T10:15:27.324Z,31.77
2022-11-27T10:18:31.246Z,34.30
2022-11-27T10:23:55.230Z,32.10
2022-11-27T10:26:32.200Z,30.38
2022-11-27T10:31:43.198Z,30.38
2022-11-27T10:34:28.828Z,30.60
2022-11-27T10:36:58.887Z,28.25
2022-11-27T10:39:33.957Z,23.48
2022-11-27T10:42:10.706Z,30.50
2022-11-27T10:44:58.855Z,30.50
2022-11-27T10:47:33.490Z,29.17
2022-11-27T10:50:01.219Z,21.27
2022-11-27T10:52:28.834Z,21.63
2022-11-27T11:34:22.693Z,23.38
2022-11-27T11:48:39.538Z,22.08
2022-11-27T12:05:22.469Z,22.40
2022-11-27T12:07:52.731Z,20.75
2022-11-27T12:28:13.682Z,26.05
2022-11-27T12:31:16.710Z,22.67
2022-11-27T12:33:43.886Z,26.90
2022-11-27T12:36:29.799Z,28.10
2022-11-27T12:39:18.689Z,30.27
2022-11-27T12:47:24.814Z,25.77
2022-11-27T12:50:00.826Z,24.08
2022-11-27T12:52:38.454Z,21.63
2022-11-27T12:55:14.847Z,22.52
2022-11-27T12:58:06.553Z,22.73
2022-11-27T13:00:39.752Z,21.15
2022-11-27T13:03:19.958Z,22.70
2022-11-27T13:05:55.897Z,22.88
2022-11-27T13:09:00.305Z,31.33
2022-11-27T13:11:40.736Z,20.23
2022-11-27T13:14:20.636Z,22.75
2022-11-27T13:16:53.204Z,22.50
2022-11-27T13:24:43.800Z,36.58
2022-11-27T13:27:17.782Z,20.55
2022-11-27T13:29:50.362Z,27.70
2022-11-27T13:32:26.995Z,29.73
2022-11-27T14:03:42.984Z,26.23
2022-11-27T15:28:02.700Z,29.75
2022-11-27T17:52:23.653Z,26.58
2022-11-27T21:34:51.368Z,37.50
2022-11-27T21:37:18.667Z,41.28
2022-11-27T21:39:45.622Z,45.38
2022-11-27T21:42:12.458Z,42.42
2022-11-27T21:44:42.114Z,46.83
2022-11-27T21:47:12.109Z,49.83
2022-11-27T21:49:39.983Z,47.70
2022-11-27T21:52:07.340Z,49.90
2022-11-27T21:54:34.774Z,51.28
2022-11-27T21:57:01.898Z,50.80
2022-11-27T21:59:28.851Z,49.90
2022-11-27T22:01:57.346Z,51.75
2022-11-27T22:04:25.645Z,43.47
2022-11-27T22:06:53.101Z,42.38
2022-11-27T22:09:20.316Z,41.80
2022-11-27T22:11:47.684Z,37.25
2022-11-27T22:14:16.549Z,35.92
2022-11-27T22:16:45.680Z,32.20
2022-11-27T22:19:14.598Z,31.90
2022-11-27T22:21:42.772Z,27.02
2022-11-27T22:24:15.118Z,28.75
2022-11-27T22:26:45.899Z,26.63
2022-11-27T22:29:13.276Z,24.50
2022-11-27T22:31:40.138Z,27.00
2022-11-27T22:34:07.001Z,28.50
2022-11-27T22:36:35.095Z,29.80
2022-11-27T22:39:06.139Z,30.38
2022-11-27T22:41:36.552Z,37.40
2022-11-27T22:44:14.474Z,27.33
2022-11-27T22:46:42.538Z,26.67
2022-11-27T22:49:12.561Z,30.27
2022-11-27T22:51:39.996Z,28.30
2022-11-27T22:54:10.377Z,25.70
2022-11-27T22:56:37.263Z,25.90
2022-11-27T22:59:31.257Z,21.27
2022-11-27T23:01:53.573Z,22.70
2022-11-27T23:04:21.012Z,20.80
2022-11-27T23:06:47.944Z,19.83
2022-11-27T23:09:17.754Z,21.42
2022-11-27T23:11:47.222Z,19.45
2022-11-27T23:14:14.473Z,17.75
2022-11-27T23:16:41.499Z,19.27
2022-11-27T23:19:09.001Z,18.30
2022-11-27T23:21:37.731Z,17.15
2022-11-27T23:24:06.046Z,17.40
2022-11-27T23:26:32.940Z,18.40
2022-11-27T23:28:59.800Z,18.85
2022-11-27T23:31:30.691Z,16.83
2022-11-27T23:34:01.227Z,16.25
2022-11-27T23:36:28.654Z,17.45
2022-11-27T23:38:55.561Z,18.20
2022-11-27T23:41:24.519Z,17.10
2022-11-27T23:43:52.832Z,17.88
2022-11-27T23:46:23.013Z,16.75
2022-11-27T23:48:50.149Z,16.73
2022-11-27T23:51:23.630Z,16.65
2022-11-27T23:53:50.529Z,15.75
2022-11-27T23:56:29.656Z,17.23
2022-11-27T23:58:56.872Z,19.52
